KPTK

Oakland County International Airport

Pontiac, Michigan, USA
METAR KPTK 191453Z 20008KT 10SM FEW200 SCT250 M04/M08 A2988 RMK AO2 SLP130 T10441083 56007
Observed Flight Rules
Jan-19 @ 14:53 UTC (32 minutes ago) Visual Flight Rules
Wind Visibility Clouds
200° at 8 knots 10 miles
  • Few at 20,000' AGL
  • Scattered at 25,000' AGL
Temperatures Readings
Current -4°C / 25°F
Dewpoint -8°C / 18°F
Humidity 74%
Altimeter 29.88" Hg
Pressure 1013 hPa
Elevation 299
METAR KPTK 191453Z 20008KT 10SM FEW200 SCT250 M04/M08 A2988 RMK AO2 SLP130 T10441083 56007
Observed Flight Rules
Jan-19 @ 14:53 UTC
(32 minutes ago)
VFR
Wind Visibility
200° at 8 knots 10 miles
Clouds
  • Few at 20,000' AGL
  • Scattered at 25,000' AGL
Temperature Dewpoint
-4°C / 25°F -8°C / 18°F
Humidity Altimeter Pressure
74% 29.88" Hg 1013 hPa